sensor_id;sensor_type;location;lat;lon;timestamp;P1;durP1;ratioP1;P2;durP2;ratioP2
22480;SDS011;11407;56.964;-2.212;2023-08-17T00:01:45;4.23;;;2.20;;
22480;SDS011;11407;56.964;-2.212;2023-08-17T00:04:10;3.17;;;2.50;;
22480;SDS011;11407;56.964;-2.212;2023-08-17T00:06:35;3.00;;;2.70;;
22480;SDS011;11407;56.964;-2.212;2023-08-17T00:09:01;3.03;;;2.47;;
22480;SDS011;11407;56.964;-2.212;2023-08-17T00:11:26;2.43;;;2.23;;
22480;SDS011;11407;56.964;-2.212;2023-08-17T00:13:51;2.50;;;2.30;;
22480;SDS011;11407;56.964;-2.212;2023-08-17T00:16:17;4.17;;;2.33;;
22480;SDS011;11407;56.964;-2.212;2023-08-17T00:18:42;3.20;;;2.50;;
22480;SDS011;11407;56.964;-2.212;2023-08-17T00:21:07;3.50;;;2.50;;
22480;SDS011;11407;56.964;-2.212;2023-08-17T00:23:32;7.40;;;2.90;;
22480;SDS011;11407;56.964;-2.212;2023-08-17T00:25:58;5.03;;;2.80;;
22480;SDS011;11407;56.964;-2.212;2023-08-17T00:28:23;5.27;;;2.60;;
22480;SDS011;11407;56.964;-2.212;2023-08-17T00:30:50;3.70;;;2.50;;
22480;SDS011;11407;56.964;-2.212;2023-08-17T00:33:15;3.23;;;2.47;;
22480;SDS011;11407;56.964;-2.212;2023-08-17T00:35:40;2.60;;;2.40;;
22480;SDS011;11407;56.964;-2.212;2023-08-17T00:38:06;5.83;;;2.60;;
22480;SDS011;11407;56.964;-2.212;2023-08-17T00:40:31;2.73;;;2.37;;
22480;SDS011;11407;56.964;-2.212;2023-08-17T00:42:56;2.60;;;2.40;;
22480;SDS011;11407;56.964;-2.212;2023-08-17T00:45:22;3.03;;;2.23;;
22480;SDS011;11407;56.964;-2.212;2023-08-17T00:47:48;3.50;;;2.10;;
22480;SDS011;11407;56.964;-2.212;2023-08-17T00:50:13;3.47;;;2.40;;
22480;SDS011;11407;56.964;-2.212;2023-08-17T00:52:39;3.63;;;2.30;;
22480;SDS011;11407;56.964;-2.212;2023-08-17T00:55:06;3.53;;;2.47;;
22480;SDS011;11407;56.964;-2.212;2023-08-17T00:57:32;4.60;;;2.30;;
22480;SDS011;11407;56.964;-2.212;2023-08-17T00:59:58;3.20;;;2.40;;
22480;SDS011;11407;56.964;-2.212;2023-08-17T01:02:24;2.80;;;2.30;;
22480;SDS011;11407;56.964;-2.212;2023-08-17T01:04:49;4.60;;;2.80;;
22480;SDS011;11407;56.964;-2.212;2023-08-17T01:07:15;3.83;;;2.60;;
22480;SDS011;11407;56.964;-2.212;2023-08-17T01:09:40;3.43;;;2.20;;
22480;SDS011;11407;56.964;-2.212;2023-08-17T01:12:08;5.17;;;3.13;;
22480;SDS011;11407;56.964;-2.212;2023-08-17T01:14:42;2.80;;;2.50;;
22480;SDS011;11407;56.964;-2.212;2023-08-17T01:17:15;2.97;;;2.40;;
22480;SDS011;11407;56.964;-2.212;2023-08-17T01:19:42;2.93;;;2.40;;
22480;SDS011;11407;56.964;-2.212;2023-08-17T01:22:10;2.60;;;2.40;;
22480;SDS011;11407;56.964;-2.212;2023-08-17T01:24:37;4.33;;;2.63;;
22480;SDS011;11407;56.964;-2.212;2023-08-17T01:27:02;2.60;;;2.37;;
22480;SDS011;11407;56.964;-2.212;2023-08-17T01:29:28;3.20;;;2.20;;
22480;SDS011;11407;56.964;-2.212;2023-08-17T01:34:24;2.63;;;2.30;;
22480;SDS011;11407;56.964;-2.212;2023-08-17T01:36:51;3.47;;;2.63;;
22480;SDS011;11407;56.964;-2.212;2023-08-17T01:39:17;2.83;;;2.53;;
22480;SDS011;11407;56.964;-2.212;2023-08-17T01:41:44;2.77;;;2.47;;
22480;SDS011;11407;56.964;-2.212;2023-08-17T01:44:10;2.97;;;2.67;;
22480;SDS011;11407;56.964;-2.212;2023-08-17T01:46:36;4.37;;;2.70;;
22480;SDS011;11407;56.964;-2.212;2023-08-17T01:49:02;2.80;;;2.50;;
22480;SDS011;11407;56.964;-2.212;2023-08-17T01:51:27;5.03;;;2.47;;
22480;SDS011;11407;56.964;-2.212;2023-08-17T01:53:52;2.50;;;2.30;;
22480;SDS011;11407;56.964;-2.212;2023-08-17T01:56:18;4.13;;;2.70;;
22480;SDS011;11407;56.964;-2.212;2023-08-17T01:58:43;2.80;;;2.43;;
22480;SDS011;11407;56.964;-2.212;2023-08-17T02:01:09;3.10;;;2.67;;
22480;SDS011;11407;56.964;-2.212;2023-08-17T02:03:34;3.20;;;2.50;;
22480;SDS011;11407;56.964;-2.212;2023-08-17T02:05:59;2.57;;;2.30;;
22480;SDS011;11407;56.964;-2.212;2023-08-17T02:08:25;3.80;;;2.10;;
22480;SDS011;11407;56.964;-2.212;2023-08-17T02:10:50;3.43;;;2.53;;
22480;SDS011;11407;56.964;-2.212;2023-08-17T02:13:15;3.07;;;2.30;;
22480;SDS011;11407;56.964;-2.212;2023-08-17T02:15:41;2.27;;;2.07;;
22480;SDS011;11407;56.964;-2.212;2023-08-17T02:18:06;3.40;;;2.30;;
22480;SDS011;11407;56.964;-2.212;2023-08-17T02:20:31;3.63;;;2.23;;
22480;SDS011;11407;56.964;-2.212;2023-08-17T02:22:57;3.90;;;2.30;;
22480;SDS011;11407;56.964;-2.212;2023-08-17T02:25:22;3.40;;;2.40;;
22480;SDS011;11407;56.964;-2.212;2023-08-17T02:27:47;3.67;;;2.30;;
22480;SDS011;11407;56.964;-2.212;2023-08-17T02:30:13;4.20;;;2.47;;
22480;SDS011;11407;56.964;-2.212;2023-08-17T02:32:38;4.00;;;2.00;;
22480;SDS011;11407;56.964;-2.212;2023-08-17T02:35:04;6.37;;;2.40;;
22480;SDS011;11407;56.964;-2.212;2023-08-17T02:37:29;4.80;;;2.20;;
22480;SDS011;11407;56.964;-2.212;2023-08-17T02:39:54;2.37;;;2.10;;
22480;SDS011;11407;56.964;-2.212;2023-08-17T02:42:19;3.93;;;2.27;;
22480;SDS011;11407;56.964;-2.212;2023-08-17T02:44:45;2.87;;;2.27;;
22480;SDS011;11407;56.964;-2.212;2023-08-17T02:47:10;4.57;;;2.27;;
22480;SDS011;11407;56.964;-2.212;2023-08-17T02:49:35;2.27;;;2.07;;
22480;SDS011;11407;56.964;-2.212;2023-08-17T02:52:00;3.83;;;2.30;;
22480;SDS011;11407;56.964;-2.212;2023-08-17T02:54:26;3.93;;;2.27;;
22480;SDS011;11407;56.964;-2.212;2023-08-17T02:56:51;2.40;;;2.20;;
22480;SDS011;11407;56.964;-2.212;2023-08-17T02:59:16;5.30;;;2.33;;
22480;SDS011;11407;56.964;-2.212;2023-08-17T03:01:44;2.07;;;1.87;;
22480;SDS011;11407;56.964;-2.212;2023-08-17T03:04:09;2.67;;;2.20;;
22480;SDS011;11407;56.964;-2.212;2023-08-17T03:06:34;3.63;;;2.10;;
22480;SDS011;11407;56.964;-2.212;2023-08-17T03:09:00;3.17;;;2.30;;
22480;SDS011;11407;56.964;-2.212;2023-08-17T03:11:25;5.70;;;2.70;;
22480;SDS011;11407;56.964;-2.212;2023-08-17T03:13:50;4.80;;;2.40;;
22480;SDS011;11407;56.964;-2.212;2023-08-17T03:16:15;5.33;;;2.20;;
22480;SDS011;11407;56.964;-2.212;2023-08-17T03:18:41;2.30;;;2.10;;
22480;SDS011;11407;56.964;-2.212;2023-08-17T03:21:06;5.97;;;2.13;;
22480;SDS011;11407;56.964;-2.212;2023-08-17T03:23:32;3.23;;;2.53;;
22480;SDS011;11407;56.964;-2.212;2023-08-17T03:25:57;3.40;;;2.30;;
22480;SDS011;11407;56.964;-2.212;2023-08-17T03:28:22;3.07;;;2.20;;
22480;SDS011;11407;56.964;-2.212;2023-08-17T03:30:48;2.50;;;2.30;;
22480;SDS011;11407;56.964;-2.212;2023-08-17T03:33:13;5.90;;;2.40;;
22480;SDS011;11407;56.964;-2.212;2023-08-17T03:35:39;3.40;;;2.03;;
22480;SDS011;11407;56.964;-2.212;2023-08-17T03:38:04;4.80;;;2.10;;
22480;SDS011;11407;56.964;-2.212;2023-08-17T03:40:29;5.43;;;2.20;;
22480;SDS011;11407;56.964;-2.212;2023-08-17T03:42:54;3.23;;;2.07;;
22480;SDS011;11407;56.964;-2.212;2023-08-17T03:45:20;2.73;;;2.50;;
22480;SDS011;11407;56.964;-2.212;2023-08-17T03:47:45;2.90;;;1.80;;
22480;SDS011;11407;56.964;-2.212;2023-08-17T03:50:10;2.37;;;2.10;;
22480;SDS011;11407;56.964;-2.212;2023-08-17T03:52:35;5.00;;;2.13;;
22480;SDS011;11407;56.964;-2.212;2023-08-17T03:55:01;4.00;;;2.13;;
22480;SDS011;11407;56.964;-2.212;2023-08-17T03:57:26;4.13;;;2.37;;
22480;SDS011;11407;56.964;-2.212;2023-08-17T03:59:51;3.23;;;2.20;;
22480;SDS011;11407;56.964;-2.212;2023-08-17T04:02:17;3.67;;;2.20;;
22480;SDS011;11407;56.964;-2.212;2023-08-17T04:04:42;4.37;;;2.20;;
22480;SDS011;11407;56.964;-2.212;2023-08-17T04:07:07;5.43;;;2.13;;
22480;SDS011;11407;56.964;-2.212;2023-08-17T04:09:33;2.70;;;2.10;;
22480;SDS011;11407;56.964;-2.212;2023-08-17T04:11:58;3.27;;;2.00;;
22480;SDS011;11407;56.964;-2.212;2023-08-17T04:14:24;2.30;;;2.10;;
22480;SDS011;11407;56.964;-2.212;2023-08-17T04:16:49;2.97;;;2.10;;
22480;SDS011;11407;56.964;-2.212;2023-08-17T04:19:14;2.00;;;1.80;;
22480;SDS011;11407;56.964;-2.212;2023-08-17T04:21:40;2.07;;;1.83;;
22480;SDS011;11407;56.964;-2.212;2023-08-17T04:24:05;3.10;;;1.80;;
22480;SDS011;11407;56.964;-2.212;2023-08-17T04:26:30;4.27;;;2.17;;
22480;SDS011;11407;56.964;-2.212;2023-08-17T04:28:56;3.30;;;2.10;;
22480;SDS011;11407;56.964;-2.212;2023-08-17T04:31:21;3.40;;;2.00;;
22480;SDS011;11407;56.964;-2.212;2023-08-17T04:33:46;2.27;;;1.87;;
22480;SDS011;11407;56.964;-2.212;2023-08-17T04:36:11;5.17;;;1.87;;
22480;SDS011;11407;56.964;-2.212;2023-08-17T04:38:37;2.60;;;1.90;;
22480;SDS011;11407;56.964;-2.212;2023-08-17T04:41:02;2.90;;;1.80;;
22480;SDS011;11407;56.964;-2.212;2023-08-17T04:43:27;2.53;;;1.50;;
22480;SDS011;11407;56.964;-2.212;2023-08-17T04:45:52;3.10;;;1.90;;
22480;SDS011;11407;56.964;-2.212;2023-08-17T04:48:18;2.07;;;1.63;;
22480;SDS011;11407;56.964;-2.212;2023-08-17T04:50:43;3.27;;;2.00;;
22480;SDS011;11407;56.964;-2.212;2023-08-17T04:53:08;2.30;;;1.70;;
22480;SDS011;11407;56.964;-2.212;2023-08-17T04:55:33;4.87;;;2.00;;
22480;SDS011;11407;56.964;-2.212;2023-08-17T04:57:59;3.63;;;1.80;;
22480;SDS011;11407;56.964;-2.212;2023-08-17T05:00:24;2.73;;;1.70;;
22480;SDS011;11407;56.964;-2.212;2023-08-17T05:02:55;2.07;;;1.83;;
22480;SDS011;11407;56.964;-2.212;2023-08-17T05:05:21;2.17;;;1.80;;
22480;SDS011;11407;56.964;-2.212;2023-08-17T05:07:46;1.87;;;1.70;;
22480;SDS011;11407;56.964;-2.212;2023-08-17T05:10:12;2.53;;;1.80;;
22480;SDS011;11407;56.964;-2.212;2023-08-17T05:12:37;2.53;;;1.70;;
22480;SDS011;11407;56.964;-2.212;2023-08-17T05:15:02;4.03;;;1.70;;
22480;SDS011;11407;56.964;-2.212;2023-08-17T05:17:28;2.80;;;1.60;;
22480;SDS011;11407;56.964;-2.212;2023-08-17T05:19:53;2.47;;;1.70;;
22480;SDS011;11407;56.964;-2.212;2023-08-17T05:22:18;3.43;;;2.00;;
22480;SDS011;11407;56.964;-2.212;2023-08-17T05:24:43;3.73;;;1.80;;
22480;SDS011;11407;56.964;-2.212;2023-08-17T05:27:09;4.57;;;1.80;;
22480;SDS011;11407;56.964;-2.212;2023-08-17T05:29:35;3.70;;;1.73;;
22480;SDS011;11407;56.964;-2.212;2023-08-17T05:32:00;1.70;;;1.60;;
22480;SDS011;11407;56.964;-2.212;2023-08-17T05:34:25;2.63;;;1.80;;
22480;SDS011;11407;56.964;-2.212;2023-08-17T05:36:51;2.60;;;1.50;;
22480;SDS011;11407;56.964;-2.212;2023-08-17T05:39:16;3.90;;;1.83;;
22480;SDS011;11407;56.964;-2.212;2023-08-17T05:41:42;1.60;;;1.50;;
22480;SDS011;11407;56.964;-2.212;2023-08-17T05:44:07;1.70;;;1.60;;
22480;SDS011;11407;56.964;-2.212;2023-08-17T05:46:32;2.07;;;1.50;;
22480;SDS011;11407;56.964;-2.212;2023-08-17T05:48:58;2.00;;;1.70;;
22480;SDS011;11407;56.964;-2.212;2023-08-17T05:51:24;2.57;;;1.57;;
22480;SDS011;11407;56.964;-2.212;2023-08-17T05:53:49;4.43;;;1.80;;
22480;SDS011;11407;56.964;-2.212;2023-08-17T05:56:14;4.07;;;1.60;;
22480;SDS011;11407;56.964;-2.212;2023-08-17T05:58:40;4.23;;;1.67;;
22480;SDS011;11407;56.964;-2.212;2023-08-17T06:01:08;3.37;;;1.50;;
22480;SDS011;11407;56.964;-2.212;2023-08-17T06:03:34;2.83;;;1.67;;
22480;SDS011;11407;56.964;-2.212;2023-08-17T06:05:59;2.07;;;1.50;;
22480;SDS011;11407;56.964;-2.212;2023-08-17T06:08:25;3.60;;;1.67;;
22480;SDS011;11407;56.964;-2.212;2023-08-17T06:10:50;2.73;;;1.60;;
22480;SDS011;11407;56.964;-2.212;2023-08-17T06:13:15;2.20;;;1.80;;
22480;SDS011;11407;56.964;-2.212;2023-08-17T06:15:40;3.43;;;2.00;;
22480;SDS011;11407;56.964;-2.212;2023-08-17T06:18:06;4.60;;;1.60;;
22480;SDS011;11407;56.964;-2.212;2023-08-17T06:20:31;4.13;;;1.90;;
22480;SDS011;11407;56.964;-2.212;2023-08-17T06:22:56;3.03;;;1.53;;
22480;SDS011;11407;56.964;-2.212;2023-08-17T06:25:21;4.03;;;1.70;;
22480;SDS011;11407;56.964;-2.212;2023-08-17T06:27:48;2.17;;;1.73;;
22480;SDS011;11407;56.964;-2.212;2023-08-17T06:30:14;3.10;;;1.50;;
22480;SDS011;11407;56.964;-2.212;2023-08-17T06:32:39;2.60;;;1.60;;
22480;SDS011;11407;56.964;-2.212;2023-08-17T06:35:04;2.20;;;1.70;;
22480;SDS011;11407;56.964;-2.212;2023-08-17T06:37:31;2.07;;;1.63;;
22480;SDS011;11407;56.964;-2.212;2023-08-17T06:39:56;3.23;;;1.63;;
22480;SDS011;11407;56.964;-2.212;2023-08-17T06:42:21;3.30;;;1.70;;
22480;SDS011;11407;56.964;-2.212;2023-08-17T06:44:46;2.40;;;1.60;;
22480;SDS011;11407;56.964;-2.212;2023-08-17T06:47:12;4.10;;;1.70;;
22480;SDS011;11407;56.964;-2.212;2023-08-17T06:49:37;3.20;;;2.03;;
22480;SDS011;11407;56.964;-2.212;2023-08-17T06:52:02;2.00;;;1.80;;
22480;SDS011;11407;56.964;-2.212;2023-08-17T06:54:27;2.60;;;1.80;;
22480;SDS011;11407;56.964;-2.212;2023-08-17T06:56:53;3.60;;;1.77;;
22480;SDS011;11407;56.964;-2.212;2023-08-17T06:59:18;4.37;;;1.97;;
22480;SDS011;11407;56.964;-2.212;2023-08-17T07:01:43;2.93;;;1.47;;
22480;SDS011;11407;56.964;-2.212;2023-08-17T07:04:09;3.13;;;1.57;;
22480;SDS011;11407;56.964;-2.212;2023-08-17T07:06:34;3.40;;;1.50;;
22480;SDS011;11407;56.964;-2.212;2023-08-17T07:08:59;1.97;;;1.50;;
22480;SDS011;11407;56.964;-2.212;2023-08-17T07:11:25;4.37;;;1.60;;
22480;SDS011;11407;56.964;-2.212;2023-08-17T07:13:50;3.50;;;1.60;;
22480;SDS011;11407;56.964;-2.212;2023-08-17T07:16:15;2.97;;;1.50;;
22480;SDS011;11407;56.964;-2.212;2023-08-17T07:18:41;2.60;;;1.63;;
22480;SDS011;11407;56.964;-2.212;2023-08-17T07:21:06;2.77;;;1.70;;
22480;SDS011;11407;56.964;-2.212;2023-08-17T07:23:31;2.20;;;1.60;;
22480;SDS011;11407;56.964;-2.212;2023-08-17T07:25:57;4.67;;;1.63;;
22480;SDS011;11407;56.964;-2.212;2023-08-17T07:28:22;1.73;;;1.30;;
22480;SDS011;11407;56.964;-2.212;2023-08-17T07:30:47;2.70;;;1.60;;
22480;SDS011;11407;56.964;-2.212;2023-08-17T07:33:12;1.40;;;1.30;;
22480;SDS011;11407;56.964;-2.212;2023-08-17T07:35:38;2.83;;;1.73;;
22480;SDS011;11407;56.964;-2.212;2023-08-17T07:38:03;2.30;;;1.40;;
22480;SDS011;11407;56.964;-2.212;2023-08-17T07:40:28;3.07;;;1.30;;
22480;SDS011;11407;56.964;-2.212;2023-08-17T07:42:53;2.20;;;1.30;;
22480;SDS011;11407;56.964;-2.212;2023-08-17T07:45:19;3.00;;;1.67;;
22480;SDS011;11407;56.964;-2.212;2023-08-17T07:47:44;3.27;;;1.50;;
22480;SDS011;11407;56.964;-2.212;2023-08-17T07:50:09;2.10;;;1.50;;
22480;SDS011;11407;56.964;-2.212;2023-08-17T07:52:35;4.17;;;1.60;;
22480;SDS011;11407;56.964;-2.212;2023-08-17T07:55:00;2.80;;;1.30;;
22480;SDS011;11407;56.964;-2.212;2023-08-17T07:57:25;3.87;;;1.43;;
22480;SDS011;11407;56.964;-2.212;2023-08-17T07:59:50;2.80;;;1.20;;
22480;SDS011;11407;56.964;-2.212;2023-08-17T08:02:16;2.27;;;1.40;;
22480;SDS011;11407;56.964;-2.212;2023-08-17T08:04:41;4.20;;;1.60;;
22480;SDS011;11407;56.964;-2.212;2023-08-17T08:07:07;3.13;;;1.40;;
22480;SDS011;11407;56.964;-2.212;2023-08-17T08:09:32;2.60;;;1.30;;
22480;SDS011;11407;56.964;-2.212;2023-08-17T08:11:57;2.33;;;1.20;;
22480;SDS011;11407;56.964;-2.212;2023-08-17T08:14:22;3.47;;;1.40;;
22480;SDS011;11407;56.964;-2.212;2023-08-17T08:16:48;3.10;;;1.30;;
22480;SDS011;11407;56.964;-2.212;2023-08-17T08:19:13;2.87;;;1.43;;
22480;SDS011;11407;56.964;-2.212;2023-08-17T08:21:38;2.40;;;1.10;;
22480;SDS011;11407;56.964;-2.212;2023-08-17T08:24:04;3.53;;;1.53;;
22480;SDS011;11407;56.964;-2.212;2023-08-17T08:26:29;2.67;;;1.43;;
22480;SDS011;11407;56.964;-2.212;2023-08-17T08:28:54;4.53;;;1.40;;
22480;SDS011;11407;56.964;-2.212;2023-08-17T08:31:20;2.63;;;1.30;;
22480;SDS011;11407;56.964;-2.212;2023-08-17T08:33:45;3.33;;;1.40;;
22480;SDS011;11407;56.964;-2.212;2023-08-17T08:36:11;3.50;;;1.40;;
22480;SDS011;11407;56.964;-2.212;2023-08-17T08:38:36;1.97;;;1.40;;
22480;SDS011;11407;56.964;-2.212;2023-08-17T08:41:02;2.67;;;1.30;;
22480;SDS011;11407;56.964;-2.212;2023-08-17T08:43:27;5.43;;;1.47;;
22480;SDS011;11407;56.964;-2.212;2023-08-17T08:45:53;2.30;;;1.23;;
22480;SDS011;11407;56.964;-2.212;2023-08-17T08:48:19;3.47;;;1.10;;
22480;SDS011;11407;56.964;-2.212;2023-08-17T08:50:46;3.47;;;1.30;;
22480;SDS011;11407;56.964;-2.212;2023-08-17T08:53:14;2.37;;;1.30;;
22480;SDS011;11407;56.964;-2.212;2023-08-17T08:55:45;2.57;;;1.40;;
22480;SDS011;11407;56.964;-2.212;2023-08-17T08:58:12;3.63;;;1.50;;
22480;SDS011;11407;56.964;-2.212;2023-08-17T09:00:38;2.47;;;1.30;;
22480;SDS011;11407;56.964;-2.212;2023-08-17T09:03:03;3.70;;;1.40;;
22480;SDS011;11407;56.964;-2.212;2023-08-17T09:05:31;4.20;;;1.70;;
22480;SDS011;11407;56.964;-2.212;2023-08-17T09:07:56;2.10;;;1.43;;
22480;SDS011;11407;56.964;-2.212;2023-08-17T09:10:22;2.73;;;1.37;;
22480;SDS011;11407;56.964;-2.212;2023-08-17T09:12:48;2.67;;;1.30;;
22480;SDS011;11407;56.964;-2.212;2023-08-17T09:15:13;4.77;;;1.60;;
22480;SDS011;11407;56.964;-2.212;2023-08-17T09:17:38;2.67;;;1.77;;
22480;SDS011;11407;56.964;-2.212;2023-08-17T09:20:04;3.43;;;1.40;;
22480;SDS011;11407;56.964;-2.212;2023-08-17T09:25:04;2.47;;;1.37;;
22480;SDS011;11407;56.964;-2.212;2023-08-17T09:27:31;2.40;;;1.40;;
22480;SDS011;11407;56.964;-2.212;2023-08-17T09:30:03;3.23;;;1.60;;
22480;SDS011;11407;56.964;-2.212;2023-08-17T09:32:30;3.00;;;1.57;;
22480;SDS011;11407;56.964;-2.212;2023-08-17T09:34:55;2.10;;;1.50;;
22480;SDS011;11407;56.964;-2.212;2023-08-17T09:37:20;2.40;;;1.20;;
22480;SDS011;11407;56.964;-2.212;2023-08-17T09:39:45;3.50;;;1.40;;
22480;SDS011;11407;56.964;-2.212;2023-08-17T09:42:10;3.23;;;1.40;;
22480;SDS011;11407;56.964;-2.212;2023-08-17T09:44:36;3.97;;;1.50;;
22480;SDS011;11407;56.964;-2.212;2023-08-17T09:47:02;1.93;;;1.30;;
22480;SDS011;11407;56.964;-2.212;2023-08-17T09:49:30;3.63;;;1.37;;
22480;SDS011;11407;56.964;-2.212;2023-08-17T09:51:57;3.07;;;1.60;;
22480;SDS011;11407;56.964;-2.212;2023-08-17T09:54:24;2.33;;;1.30;;
22480;SDS011;11407;56.964;-2.212;2023-08-17T09:56:51;1.97;;;1.37;;
22480;SDS011;11407;56.964;-2.212;2023-08-17T09:59:17;2.13;;;1.17;;
22480;SDS011;11407;56.964;-2.212;2023-08-17T10:01:42;2.07;;;1.17;;
22480;SDS011;11407;56.964;-2.212;2023-08-17T10:04:08;3.17;;;1.63;;
22480;SDS011;11407;56.964;-2.212;2023-08-17T10:06:34;2.10;;;1.30;;
22480;SDS011;11407;56.964;-2.212;2023-08-17T10:09:00;2.70;;;1.30;;
22480;SDS011;11407;56.964;-2.212;2023-08-17T10:11:26;2.53;;;1.40;;
22480;SDS011;11407;56.964;-2.212;2023-08-17T10:13:54;3.87;;;1.50;;
22480;SDS011;11407;56.964;-2.212;2023-08-17T10:16:22;2.90;;;1.50;;
22480;SDS011;11407;56.964;-2.212;2023-08-17T10:18:54;3.27;;;1.37;;
22480;SDS011;11407;56.964;-2.212;2023-08-17T10:21:24;2.83;;;1.37;;
22480;SDS011;11407;56.964;-2.212;2023-08-17T10:23:52;1.93;;;1.20;;
22480;SDS011;11407;56.964;-2.212;2023-08-17T10:26:18;3.63;;;1.40;;
22480;SDS011;11407;56.964;-2.212;2023-08-17T10:28:44;3.13;;;1.50;;
22480;SDS011;11407;56.964;-2.212;2023-08-17T10:31:10;2.03;;;1.20;;
22480;SDS011;11407;56.964;-2.212;2023-08-17T10:33:35;5.03;;;1.50;;
22480;SDS011;11407;56.964;-2.212;2023-08-17T10:36:01;6.43;;;1.60;;
22480;SDS011;11407;56.964;-2.212;2023-08-17T10:38:26;2.90;;;1.73;;
22480;SDS011;11407;56.964;-2.212;2023-08-17T10:43:59;3.30;;;1.40;;
22480;SDS011;11407;56.964;-2.212;2023-08-17T10:46:37;2.83;;;1.60;;
22480;SDS011;11407;56.964;-2.212;2023-08-17T10:49:06;2.43;;;1.30;;
22480;SDS011;11407;56.964;-2.212;2023-08-17T10:51:32;4.70;;;1.63;;
22480;SDS011;11407;56.964;-2.212;2023-08-17T10:54:03;2.87;;;1.40;;
22480;SDS011;11407;56.964;-2.212;2023-08-17T10:56:29;2.93;;;1.43;;
22480;SDS011;11407;56.964;-2.212;2023-08-17T10:58:54;2.93;;;1.47;;
22480;SDS011;11407;56.964;-2.212;2023-08-17T11:01:32;2.27;;;1.40;;
22480;SDS011;11407;56.964;-2.212;2023-08-17T11:04:11;2.97;;;1.30;;
22480;SDS011;11407;56.964;-2.212;2023-08-17T11:06:36;2.53;;;1.50;;
22480;SDS011;11407;56.964;-2.212;2023-08-17T11:09:05;1.77;;;1.20;;
22480;SDS011;11407;56.964;-2.212;2023-08-17T11:11:31;4.20;;;1.33;;
22480;SDS011;11407;56.964;-2.212;2023-08-17T11:13:56;4.17;;;1.60;;
22480;SDS011;11407;56.964;-2.212;2023-08-17T11:16:22;2.67;;;1.00;;
22480;SDS011;11407;56.964;-2.212;2023-08-17T11:18:48;1.80;;;1.20;;
22480;SDS011;11407;56.964;-2.212;2023-08-17T11:21:14;4.40;;;1.20;;
22480;SDS011;11407;56.964;-2.212;2023-08-17T11:23:40;4.43;;;1.80;;
22480;SDS011;11407;56.964;-2.212;2023-08-17T11:26:06;3.30;;;1.50;;
22480;SDS011;11407;56.964;-2.212;2023-08-17T11:28:32;4.20;;;1.20;;
22480;SDS011;11407;56.964;-2.212;2023-08-17T11:31:01;2.27;;;1.47;;
22480;SDS011;11407;56.964;-2.212;2023-08-17T11:33:27;5.07;;;1.37;;
22480;SDS011;11407;56.964;-2.212;2023-08-17T11:35:56;2.23;;;1.20;;
22480;SDS011;11407;56.964;-2.212;2023-08-17T11:38:22;2.43;;;1.20;;
22480;SDS011;11407;56.964;-2.212;2023-08-17T11:40:48;1.63;;;1.30;;
22480;SDS011;11407;56.964;-2.212;2023-08-17T11:43:13;2.97;;;1.10;;
22480;SDS011;11407;56.964;-2.212;2023-08-17T11:45:39;2.20;;;1.20;;
22480;SDS011;11407;56.964;-2.212;2023-08-17T11:48:04;3.57;;;1.10;;
22480;SDS011;11407;56.964;-2.212;2023-08-17T11:50:30;1.37;;;1.00;;
22480;SDS011;11407;56.964;-2.212;2023-08-17T11:52:55;2.53;;;1.00;;
22480;SDS011;11407;56.964;-2.212;2023-08-17T11:55:23;3.37;;;1.27;;
22480;SDS011;11407;56.964;-2.212;2023-08-17T11:57:49;1.73;;;1.00;;
22480;SDS011;11407;56.964;-2.212;2023-08-17T12:00:18;2.57;;;1.03;;
22480;SDS011;11407;56.964;-2.212;2023-08-17T12:02:48;2.73;;;1.10;;
22480;SDS011;11407;56.964;-2.212;2023-08-17T12:05:18;1.80;;;1.10;;
22480;SDS011;11407;56.964;-2.212;2023-08-17T12:07:43;5.40;;;1.40;;
22480;SDS011;11407;56.964;-2.212;2023-08-17T12:10:10;2.87;;;0.90;;
22480;SDS011;11407;56.964;-2.212;2023-08-17T12:12:38;3.33;;;1.30;;
22480;SDS011;11407;56.964;-2.212;2023-08-17T12:15:04;2.23;;;1.27;;
22480;SDS011;11407;56.964;-2.212;2023-08-17T12:17:29;2.50;;;1.03;;
22480;SDS011;11407;56.964;-2.212;2023-08-17T12:19:55;2.93;;;1.20;;
22480;SDS011;11407;56.964;-2.212;2023-08-17T12:22:23;2.33;;;1.10;;
22480;SDS011;11407;56.964;-2.212;2023-08-17T12:24:48;2.73;;;1.20;;
22480;SDS011;11407;56.964;-2.212;2023-08-17T12:27:14;3.20;;;1.17;;
22480;SDS011;11407;56.964;-2.212;2023-08-17T12:29:46;3.90;;;1.10;;
22480;SDS011;11407;56.964;-2.212;2023-08-17T12:32:13;1.10;;;0.83;;
22480;SDS011;11407;56.964;-2.212;2023-08-17T12:34:38;2.73;;;1.10;;
22480;SDS011;11407;56.964;-2.212;2023-08-17T12:37:03;2.20;;;0.90;;
22480;SDS011;11407;56.964;-2.212;2023-08-17T12:39:28;1.37;;;1.00;;
22480;SDS011;11407;56.964;-2.212;2023-08-17T12:41:54;2.83;;;1.20;;
22480;SDS011;11407;56.964;-2.212;2023-08-17T12:44:19;2.47;;;1.00;;
22480;SDS011;11407;56.964;-2.212;2023-08-17T12:46:45;4.20;;;1.20;;
22480;SDS011;11407;56.964;-2.212;2023-08-17T12:49:10;1.47;;;1.00;;
22480;SDS011;11407;56.964;-2.212;2023-08-17T12:51:35;1.37;;;1.00;;
22480;SDS011;11407;56.964;-2.212;2023-08-17T12:54:00;2.27;;;1.00;;
22480;SDS011;11407;56.964;-2.212;2023-08-17T12:56:26;1.20;;;1.10;;
22480;SDS011;11407;56.964;-2.212;2023-08-17T12:58:51;1.67;;;1.10;;
22480;SDS011;11407;56.964;-2.212;2023-08-17T13:01:16;2.77;;;1.00;;
22480;SDS011;11407;56.964;-2.212;2023-08-17T13:03:43;1.70;;;1.10;;
22480;SDS011;11407;56.964;-2.212;2023-08-17T13:06:08;1.47;;;1.03;;
22480;SDS011;11407;56.964;-2.212;2023-08-17T13:08:34;5.37;;;1.30;;
22480;SDS011;11407;56.964;-2.212;2023-08-17T13:10:59;2.63;;;1.17;;
22480;SDS011;11407;56.964;-2.212;2023-08-17T13:13:25;2.67;;;0.97;;
22480;SDS011;11407;56.964;-2.212;2023-08-17T13:15:50;1.60;;;1.10;;
22480;SDS011;11407;56.964;-2.212;2023-08-17T13:18:16;1.67;;;1.00;;
22480;SDS011;11407;56.964;-2.212;2023-08-17T13:20:41;1.50;;;1.00;;
22480;SDS011;11407;56.964;-2.212;2023-08-17T13:23:06;4.70;;;1.10;;
22480;SDS011;11407;56.964;-2.212;2023-08-17T13:25:32;3.27;;;1.60;;
22480;SDS011;11407;56.964;-2.212;2023-08-17T13:27:57;1.87;;;1.00;;
22480;SDS011;11407;56.964;-2.212;2023-08-17T13:30:22;2.43;;;1.20;;
22480;SDS011;11407;56.964;-2.212;2023-08-17T13:32:47;3.10;;;1.10;;
22480;SDS011;11407;56.964;-2.212;2023-08-17T13:35:13;3.07;;;1.00;;
22480;SDS011;11407;56.964;-2.212;2023-08-17T13:37:38;4.17;;;1.23;;
22480;SDS011;11407;56.964;-2.212;2023-08-17T13:40:05;3.57;;;1.17;;
22480;SDS011;11407;56.964;-2.212;2023-08-17T13:42:30;3.13;;;1.10;;
22480;SDS011;11407;56.964;-2.212;2023-08-17T13:44:55;2.87;;;1.30;;
22480;SDS011;11407;56.964;-2.212;2023-08-17T13:47:21;1.97;;;1.10;;
22480;SDS011;11407;56.964;-2.212;2023-08-17T13:49:46;1.50;;;1.00;;
22480;SDS011;11407;56.964;-2.212;2023-08-17T13:52:11;1.13;;;0.93;;
22480;SDS011;11407;56.964;-2.212;2023-08-17T13:54:36;2.13;;;1.00;;
22480;SDS011;11407;56.964;-2.212;2023-08-17T13:57:02;2.63;;;1.03;;
22480;SDS011;11407;56.964;-2.212;2023-08-17T13:59:27;2.37;;;1.00;;
22480;SDS011;11407;56.964;-2.212;2023-08-17T14:01:54;3.50;;;1.20;;
22480;SDS011;11407;56.964;-2.212;2023-08-17T14:04:21;2.07;;;1.00;;
22480;SDS011;11407;56.964;-2.212;2023-08-17T14:06:46;2.07;;;1.00;;
22480;SDS011;11407;56.964;-2.212;2023-08-17T14:09:11;2.83;;;1.10;;
22480;SDS011;11407;56.964;-2.212;2023-08-17T14:11:37;2.40;;;1.00;;
22480;SDS011;11407;56.964;-2.212;2023-08-17T14:14:02;2.23;;;1.20;;
22480;SDS011;11407;56.964;-2.212;2023-08-17T14:16:27;2.07;;;1.13;;
22480;SDS011;11407;56.964;-2.212;2023-08-17T14:18:53;2.87;;;1.37;;
22480;SDS011;11407;56.964;-2.212;2023-08-17T14:21:18;1.87;;;1.00;;
22480;SDS011;11407;56.964;-2.212;2023-08-17T14:23:43;1.53;;;1.00;;
22480;SDS011;11407;56.964;-2.212;2023-08-17T14:26:09;1.90;;;1.03;;
22480;SDS011;11407;56.964;-2.212;2023-08-17T14:28:34;2.63;;;1.10;;
22480;SDS011;11407;56.964;-2.212;2023-08-17T14:31:00;3.33;;;1.10;;
22480;SDS011;11407;56.964;-2.212;2023-08-17T14:33:25;1.73;;;1.10;;